sensor_id;sensor_type;location;lat;lon;timestamp;pressure;altitude;pressure_sealevel;temperature;humidity
12879;BME280;20617;49.476;10.986;2022-10-16T00:00:17;98202.91;;;17.34;100.00
12879;BME280;20617;49.476;10.986;2022-10-16T00:02:22;98205.63;;;17.32;100.00
12879;BME280;20617;49.476;10.986;2022-10-16T00:04:27;98209.22;;;17.31;100.00
12879;BME280;20617;49.476;10.986;2022-10-16T00:06:32;98205.75;;;17.31;100.00
12879;BME280;20617;49.476;10.986;2022-10-16T00:08:37;98211.09;;;17.29;100.00
12879;BME280;20617;49.476;10.986;2022-10-16T00:10:45;98220.66;;;17.30;100.00
12879;BME280;20617;49.476;10.986;2022-10-16T00:12:50;98227.72;;;17.30;100.00
12879;BME280;20617;49.476;10.986;2022-10-16T00:14:55;98233.81;;;17.30;100.00
12879;BME280;20617;49.476;10.986;2022-10-16T00:16:59;98229.31;;;17.32;100.00
12879;BME280;20617;49.476;10.986;2022-10-16T00:19:05;98231.94;;;17.32;100.00
12879;BME280;20617;49.476;10.986;2022-10-16T00:21:10;98238.38;;;17.28;100.00
12879;BME280;20617;49.476;10.986;2022-10-16T00:23:15;98228.91;;;17.26;100.00
12879;BME280;20617;49.476;10.986;2022-10-16T00:25:20;98228.06;;;17.25;100.00
12879;BME280;20617;49.476;10.986;2022-10-16T00:27:27;98226.38;;;17.24;100.00
12879;BME280;20617;49.476;10.986;2022-10-16T00:29:33;98225.66;;;17.22;100.00
12879;BME280;20617;49.476;10.986;2022-10-16T00:31:38;98225.66;;;17.22;100.00
12879;BME280;20617;49.476;10.986;2022-10-16T00:33:43;98233.34;;;17.25;100.00
12879;BME280;20617;49.476;10.986;2022-10-16T00:35:48;98233.34;;;17.25;100.00
12879;BME280;20617;49.476;10.986;2022-10-16T00:37:53;98242.91;;;17.26;100.00
12879;BME280;20617;49.476;10.986;2022-10-16T00:39:58;98242.28;;;17.23;100.00
12879;BME280;20617;49.476;10.986;2022-10-16T00:42:03;98248.38;;;17.23;100.00
12879;BME280;20617;49.476;10.986;2022-10-16T00:46:35;98233.00;;;17.17;100.00
12879;BME280;20617;49.476;10.986;2022-10-16T00:48:44;98231.44;;;17.14;100.00
12879;BME280;20617;49.476;10.986;2022-10-16T00:50:50;98234.06;;;17.14;100.00
12879;BME280;20617;49.476;10.986;2022-10-16T00:52:55;98238.16;;;17.06;100.00
12879;BME280;20617;49.476;10.986;2022-10-16T00:55:01;98249.53;;;17.06;100.00
12879;BME280;20617;49.476;10.986;2022-10-16T00:57:07;98243.44;;;17.06;100.00
12879;BME280;20617;49.476;10.986;2022-10-16T00:59:14;98242.81;;;17.02;100.00
12879;BME280;20617;49.476;10.986;2022-10-16T01:01:20;98250.78;;;17.01;100.00
12879;BME280;20617;49.476;10.986;2022-10-16T01:03:31;98257.00;;;17.00;100.00
12879;BME280;20617;49.476;10.986;2022-10-16T01:05:41;98254.25;;;17.01;100.00
12879;BME280;20617;49.476;10.986;2022-10-16T01:07:56;98268.16;;;17.03;100.00
12879;BME280;20617;49.476;10.986;2022-10-16T01:10:07;98255.13;;;17.02;100.00
12879;BME280;20617;49.476;10.986;2022-10-16T01:12:16;98245.31;;;17.04;100.00
12879;BME280;20617;49.476;10.986;2022-10-16T01:14:32;98253.22;;;17.04;100.00
12879;BME280;20617;49.476;10.986;2022-10-16T01:16:47;98263.00;;;17.02;100.00
12879;BME280;20617;49.476;10.986;2022-10-16T01:19:02;98266.47;;;17.02;100.00
12879;BME280;20617;49.476;10.986;2022-10-16T01:21:13;98258.47;;;17.04;100.00
12879;BME280;20617;49.476;10.986;2022-10-16T01:23:30;98263.84;;;17.02;100.00
12879;BME280;20617;49.476;10.986;2022-10-16T01:25:55;98255.97;;;17.02;100.00
12879;BME280;20617;49.476;10.986;2022-10-16T01:28:09;98261.22;;;17.02;100.00
12879;BME280;20617;49.476;10.986;2022-10-16T01:30:20;98258.69;;;17.01;100.00
12879;BME280;20617;49.476;10.986;2022-10-16T01:32:32;98258.81;;;16.99;100.00
12879;BME280;20617;49.476;10.986;2022-10-16T01:34:42;98267.81;;;16.95;100.00
12879;BME280;20617;49.476;10.986;2022-10-16T01:36:54;98265.09;;;16.96;100.00
12879;BME280;20617;49.476;10.986;2022-10-16T01:39:02;98267.53;;;17.00;100.00
12879;BME280;20617;49.476;10.986;2022-10-16T01:41:10;98276.25;;;17.00;100.00
12879;BME280;20617;49.476;10.986;2022-10-16T01:43:22;98271.00;;;17.00;100.00
12879;BME280;20617;49.476;10.986;2022-10-16T01:45:31;98272.03;;;16.97;100.00
12879;BME280;20617;49.476;10.986;2022-10-16T01:47:37;98277.28;;;16.97;100.00
12879;BME280;20617;49.476;10.986;2022-10-16T01:49:43;98274.88;;;16.94;100.00
12879;BME280;20617;49.476;10.986;2022-10-16T01:51:53;98279.19;;;16.95;100.00
12879;BME280;20617;49.476;10.986;2022-10-16T01:54:00;98291.41;;;16.96;100.00
12879;BME280;20617;49.476;10.986;2022-10-16T01:56:08;98291.28;;;16.98;100.00
12879;BME280;20617;49.476;10.986;2022-10-16T01:58:14;98306.44;;;16.94;100.00
12879;BME280;20617;49.476;10.986;2022-10-16T02:00:22;98302.53;;;17.00;100.00
12879;BME280;20617;49.476;10.986;2022-10-16T02:02:29;98293.81;;;17.00;100.00
12879;BME280;20617;49.476;10.986;2022-10-16T02:04:38;98293.69;;;17.01;100.00
12879;BME280;20617;49.476;10.986;2022-10-16T02:06:43;98295.50;;;17.01;100.00
12879;BME280;20617;49.476;10.986;2022-10-16T02:08:48;98296.53;;;16.98;100.00
12879;BME280;20617;49.476;10.986;2022-10-16T02:10:54;98298.25;;;16.99;100.00
12879;BME280;20617;49.476;10.986;2022-10-16T02:13:03;98295.50;;;17.01;100.00
12879;BME280;20617;49.476;10.986;2022-10-16T02:15:10;98294.66;;;17.00;100.00
12879;BME280;20617;49.476;10.986;2022-10-16T02:17:18;98300.97;;;16.97;100.00
12879;BME280;20617;49.476;10.986;2022-10-16T02:19:23;98296.75;;;16.95;100.00
12879;BME280;20617;49.476;10.986;2022-10-16T02:21:28;98291.06;;;16.88;100.00
12879;BME280;20617;49.476;10.986;2022-10-16T02:23:39;98295.38;;;16.89;100.00
12879;BME280;20617;49.476;10.986;2022-10-16T02:25:49;98295.50;;;16.88;100.00
12879;BME280;20617;49.476;10.986;2022-10-16T02:27:59;98291.16;;;16.87;100.00
12879;BME280;20617;49.476;10.986;2022-10-16T02:30:07;98290.13;;;16.89;100.00
12879;BME280;20617;49.476;10.986;2022-10-16T02:32:21;98287.59;;;16.88;100.00
12879;BME280;20617;49.476;10.986;2022-10-16T02:34:30;98290.03;;;16.91;100.00
12879;BME280;20617;49.476;10.986;2022-10-16T02:36:36;98283.19;;;16.88;100.00
12879;BME280;20617;49.476;10.986;2022-10-16T02:38:42;98285.69;;;16.90;100.00
12879;BME280;20617;49.476;10.986;2022-10-16T02:40:48;98296.22;;;16.90;100.00
12879;BME280;20617;49.476;10.986;2022-10-16T02:42:54;98290.88;;;16.91;100.00
12879;BME280;20617;49.476;10.986;2022-10-16T02:44:59;98291.69;;;16.92;100.00
12879;BME280;20617;49.476;10.986;2022-10-16T02:47:04;98287.19;;;16.94;100.00
12879;BME280;20617;49.476;10.986;2022-10-16T02:49:11;98288.31;;;16.90;100.00
12879;BME280;20617;49.476;10.986;2022-10-16T02:51:17;98277.94;;;16.88;100.00
12879;BME280;20617;49.476;10.986;2022-10-16T02:53:21;98280.56;;;16.88;100.00
12879;BME280;20617;49.476;10.986;2022-10-16T02:55:26;98287.59;;;16.88;100.00
12879;BME280;20617;49.476;10.986;2022-10-16T02:57:32;98304.31;;;16.87;100.00
12879;BME280;20617;49.476;10.986;2022-10-16T02:59:38;98304.50;;;16.84;100.00
12879;BME280;20617;49.476;10.986;2022-10-16T03:01:43;98308.00;;;16.84;100.00
12879;BME280;20617;49.476;10.986;2022-10-16T03:03:48;98302.84;;;16.83;100.00
12879;BME280;20617;49.476;10.986;2022-10-16T03:05:55;98300.97;;;16.85;100.00
12879;BME280;20617;49.476;10.986;2022-10-16T03:08:00;98308.84;;;16.85;100.00
12879;BME280;20617;49.476;10.986;2022-10-16T03:10:06;98316.72;;;16.85;100.00
12879;BME280;20617;49.476;10.986;2022-10-16T03:12:10;98313.25;;;16.84;100.00
12879;BME280;20617;49.476;10.986;2022-10-16T03:14:16;98306.31;;;16.83;100.00
12879;BME280;20617;49.476;10.986;2022-10-16T03:16:21;98309.78;;;16.84;100.00
12879;BME280;20617;49.476;10.986;2022-10-16T03:18:26;98311.69;;;16.82;100.00
12879;BME280;20617;49.476;10.986;2022-10-16T03:20:31;98305.75;;;16.78;100.00
12879;BME280;20617;49.476;10.986;2022-10-16T03:22:38;98308.50;;;16.77;100.00
12879;BME280;20617;49.476;10.986;2022-10-16T03:24:43;98312.94;;;16.76;100.00
12879;BME280;20617;49.476;10.986;2022-10-16T03:26:48;98309.72;;;16.71;100.00
12879;BME280;20617;49.476;10.986;2022-10-16T03:28:52;98321.06;;;16.71;100.00
12879;BME280;20617;49.476;10.986;2022-10-16T03:30:57;98311.50;;;16.70;100.00
12879;BME280;20617;49.476;10.986;2022-10-16T03:33:02;98316.03;;;16.68;100.00
12879;BME280;20617;49.476;10.986;2022-10-16T03:35:07;98306.56;;;16.66;100.00
12879;BME280;20617;49.476;10.986;2022-10-16T03:37:12;98326.66;;;16.67;100.00
12879;BME280;20617;49.476;10.986;2022-10-16T03:39:20;98337.34;;;16.64;100.00
12879;BME280;20617;49.476;10.986;2022-10-16T03:41:27;98327.56;;;16.66;100.00
12879;BME280;20617;49.476;10.986;2022-10-16T03:43:32;98327.56;;;16.66;100.00
12879;BME280;20617;49.476;10.986;2022-10-16T03:45:36;98330.13;;;16.67;100.00
12879;BME280;20617;49.476;10.986;2022-10-16T03:47:41;98330.13;;;16.67;100.00
12879;BME280;20617;49.476;10.986;2022-10-16T03:49:46;98327.50;;;16.67;100.00
12879;BME280;20617;49.476;10.986;2022-10-16T03:51:51;98329.38;;;16.65;100.00
12879;BME280;20617;49.476;10.986;2022-10-16T03:53:56;98328.41;;;16.66;100.00
12879;BME280;20617;49.476;10.986;2022-10-16T03:56:04;98329.06;;;16.70;100.00
12879;BME280;20617;49.476;10.986;2022-10-16T03:58:08;98337.16;;;16.67;100.00
12879;BME280;20617;49.476;10.986;2022-10-16T04:00:13;98332.63;;;16.69;100.00
12879;BME280;20617;49.476;10.986;2022-10-16T04:02:18;98328.13;;;16.71;100.00
12879;BME280;20617;49.476;10.986;2022-10-16T04:04:23;98333.47;;;16.69;100.00
12879;BME280;20617;49.476;10.986;2022-10-16T04:06:28;98337.88;;;16.69;100.00
12879;BME280;20617;49.476;10.986;2022-10-16T04:08:33;98344.72;;;16.71;100.00
12879;BME280;20617;49.476;10.986;2022-10-16T04:10:38;98342.75;;;16.75;100.00
12879;BME280;20617;49.476;10.986;2022-10-16T04:12:46;98344.34;;;16.78;100.00
12879;BME280;20617;49.476;10.986;2022-10-16T04:14:50;98353.09;;;16.78;100.00
12879;BME280;20617;49.476;10.986;2022-10-16T04:16:55;98350.38;;;16.80;100.00
12879;BME280;20617;49.476;10.986;2022-10-16T04:19:00;98355.81;;;16.77;100.00
12879;BME280;20617;49.476;10.986;2022-10-16T04:21:06;98355.63;;;16.80;100.00
12879;BME280;20617;49.476;10.986;2022-10-16T04:23:10;98361.94;;;16.77;100.00
12879;BME280;20617;49.476;10.986;2022-10-16T04:25:16;98343.78;;;16.72;100.00
12879;BME280;20617;49.476;10.986;2022-10-16T04:27:20;98356.00;;;16.73;100.00
12879;BME280;20617;49.476;10.986;2022-10-16T04:29:28;98343.91;;;16.71;100.00
12879;BME280;20617;49.476;10.986;2022-10-16T04:31:33;98355.16;;;16.73;100.00
12879;BME280;20617;49.476;10.986;2022-10-16T04:33:38;98357.78;;;16.73;100.00
12879;BME280;20617;49.476;10.986;2022-10-16T04:35:46;98339.38;;;16.73;100.00
12879;BME280;20617;49.476;10.986;2022-10-16T04:37:51;98348.19;;;16.72;100.00
12879;BME280;20617;49.476;10.986;2022-10-16T04:39:55;98340.31;;;16.72;100.00
12879;BME280;20617;49.476;10.986;2022-10-16T04:42:00;98341.16;;;16.72;100.00
12879;BME280;20617;49.476;10.986;2022-10-16T04:44:05;98349.91;;;16.73;100.00
12879;BME280;20617;49.476;10.986;2022-10-16T04:46:12;98350.63;;;16.75;100.00
12879;BME280;20617;49.476;10.986;2022-10-16T04:48:17;98344.66;;;16.73;100.00
12879;BME280;20617;49.476;10.986;2022-10-16T04:50:22;98341.06;;;16.74;100.00
12879;BME280;20617;49.476;10.986;2022-10-16T04:52:39;98337.44;;;16.77;100.00
12879;BME280;20617;49.476;10.986;2022-10-16T04:54:44;98339.94;;;16.78;100.00
12879;BME280;20617;49.476;10.986;2022-10-16T04:56:49;98345.31;;;16.77;100.00
12879;BME280;20617;49.476;10.986;2022-10-16T04:58:54;98351.31;;;16.79;100.00
12879;BME280;20617;49.476;10.986;2022-10-16T05:00:58;98345.31;;;16.77;100.00
12879;BME280;20617;49.476;10.986;2022-10-16T05:03:06;98350.56;;;16.77;100.00
12879;BME280;20617;49.476;10.986;2022-10-16T05:05:11;98348.00;;;16.75;100.00
12879;BME280;20617;49.476;10.986;2022-10-16T05:07:16;98343.69;;;16.74;100.00
12879;BME280;20617;49.476;10.986;2022-10-16T05:09:21;98350.00;;;16.71;100.00
12879;BME280;20617;49.476;10.986;2022-10-16T05:11:26;98348.41;;;16.69;100.00
12879;BME280;20617;49.476;10.986;2022-10-16T05:13:31;98358.28;;;16.65;100.00
12879;BME280;20617;49.476;10.986;2022-10-16T05:15:36;98364.69;;;16.61;100.00
12879;BME280;20617;49.476;10.986;2022-10-16T05:17:41;98356.34;;;16.55;100.00
12879;BME280;20617;49.476;10.986;2022-10-16T05:19:48;98362.56;;;16.53;100.00
12879;BME280;20617;49.476;10.986;2022-10-16T05:21:53;98363.59;;;16.51;100.00
12879;BME280;20617;49.476;10.986;2022-10-16T05:23:58;98366.41;;;16.48;100.00
12879;BME280;20617;49.476;10.986;2022-10-16T05:26:03;98377.97;;;16.45;100.00
12879;BME280;20617;49.476;10.986;2022-10-16T05:28:08;98384.94;;;16.46;100.00
12879;BME280;20617;49.476;10.986;2022-10-16T05:30:13;98370.09;;;16.45;100.00
12879;BME280;20617;49.476;10.986;2022-10-16T05:32:18;98379.84;;;16.43;100.00
12879;BME280;20617;49.476;10.986;2022-10-16T05:34:23;98382.56;;;16.42;100.00
12879;BME280;20617;49.476;10.986;2022-10-16T05:36:30;98392.88;;;16.45;100.00
12879;BME280;20617;49.476;10.986;2022-10-16T05:38:36;98403.13;;;16.49;100.00
12879;BME280;20617;49.476;10.986;2022-10-16T05:40:41;98409.84;;;16.53;100.00
12879;BME280;20617;49.476;10.986;2022-10-16T05:42:46;98406.28;;;16.55;100.00
12879;BME280;20617;49.476;10.986;2022-10-16T05:44:51;98405.34;;;16.56;100.00
12879;BME280;20617;49.476;10.986;2022-10-16T05:46:56;98405.25;;;16.57;100.00
12879;BME280;20617;49.476;10.986;2022-10-16T05:49:01;98420.91;;;16.59;100.00
12879;BME280;20617;49.476;10.986;2022-10-16T05:51:09;98414.84;;;16.58;100.00
12879;BME280;20617;49.476;10.986;2022-10-16T05:53:16;98412.09;;;16.60;100.00
12879;BME280;20617;49.476;10.986;2022-10-16T05:55:27;98410.41;;;16.59;100.00
12879;BME280;20617;49.476;10.986;2022-10-16T05:57:31;98411.44;;;16.56;100.00
12879;BME280;20617;49.476;10.986;2022-10-16T05:59:36;98411.66;;;16.53;100.00
12879;BME280;20617;49.476;10.986;2022-10-16T06:01:41;98408.06;;;16.54;100.00
12879;BME280;20617;49.476;10.986;2022-10-16T06:03:46;98408.91;;;16.55;100.00
12879;BME280;20617;49.476;10.986;2022-10-16T06:05:51;98402.91;;;16.52;100.00
12879;BME280;20617;49.476;10.986;2022-10-16T06:07:56;98408.47;;;16.48;100.00
12879;BME280;20617;49.476;10.986;2022-10-16T06:10:04;98422.44;;;16.48;100.00
12879;BME280;20617;49.476;10.986;2022-10-16T06:12:10;98421.41;;;16.51;100.00
12879;BME280;20617;49.476;10.986;2022-10-16T06:14:15;98421.31;;;16.52;100.00
12879;BME280;20617;49.476;10.986;2022-10-16T06:16:21;98421.13;;;16.56;100.00
12879;BME280;20617;49.476;10.986;2022-10-16T06:18:26;98421.13;;;16.56;100.00
12879;BME280;20617;49.476;10.986;2022-10-16T06:20:31;98426.06;;;16.60;100.00
12879;BME280;20617;49.476;10.986;2022-10-16T06:22:35;98428.41;;;16.65;100.00
12879;BME280;20617;49.476;10.986;2022-10-16T06:24:40;98424.63;;;16.69;100.00
12879;BME280;20617;49.476;10.986;2022-10-16T06:26:48;98417.38;;;16.72;100.00
12879;BME280;20617;49.476;10.986;2022-10-16T06:28:54;98418.66;;;16.67;100.00
12879;BME280;20617;49.476;10.986;2022-10-16T06:30:59;98423.91;;;16.67;100.00
12879;BME280;20617;49.476;10.986;2022-10-16T06:33:09;98424.53;;;16.70;100.00
12879;BME280;20617;49.476;10.986;2022-10-16T06:35:14;98427.91;;;16.72;100.00
12879;BME280;20617;49.476;10.986;2022-10-16T06:37:18;98435.63;;;16.75;100.00
12879;BME280;20617;49.476;10.986;2022-10-16T06:39:23;98423.97;;;16.80;100.00
12879;BME280;20617;49.476;10.986;2022-10-16T06:41:28;98428.41;;;16.79;100.00
12879;BME280;20617;49.476;10.986;2022-10-16T06:43:45;98418.72;;;16.80;100.00
12879;BME280;20617;49.476;10.986;2022-10-16T06:45:51;98423.88;;;16.81;100.00
12879;BME280;20617;49.476;10.986;2022-10-16T06:47:59;98419.56;;;16.80;100.00
12879;BME280;20617;49.476;10.986;2022-10-16T06:50:05;98430.72;;;16.84;100.00
12879;BME280;20617;49.476;10.986;2022-10-16T06:52:11;98425.56;;;16.82;100.00
12879;BME280;20617;49.476;10.986;2022-10-16T06:54:16;98432.41;;;16.85;100.00
12879;BME280;20617;49.476;10.986;2022-10-16T06:56:22;98449.03;;;16.85;100.00
12879;BME280;20617;49.476;10.986;2022-10-16T06:58:28;98444.63;;;16.86;100.00
12879;BME280;20617;49.476;10.986;2022-10-16T07:00:35;98453.25;;;16.88;100.00
12879;BME280;20617;49.476;10.986;2022-10-16T07:02:40;98454.84;;;16.90;100.00
12879;BME280;20617;49.476;10.986;2022-10-16T07:04:44;98457.47;;;16.90;100.00
12879;BME280;20617;49.476;10.986;2022-10-16T07:06:49;98462.75;;;16.90;100.00
12879;BME280;20617;49.476;10.986;2022-10-16T07:08:54;98469.88;;;16.88;100.00
12879;BME280;20617;49.476;10.986;2022-10-16T07:11:00;98473.13;;;16.92;100.00
12879;BME280;20617;49.476;10.986;2022-10-16T07:13:05;98480.94;;;16.93;100.00
12879;BME280;20617;49.476;10.986;2022-10-16T07:15:14;98483.38;;;16.96;100.00
12879;BME280;20617;49.476;10.986;2022-10-16T07:17:22;98470.78;;;17.02;100.00
12879;BME280;20617;49.476;10.986;2022-10-16T07:19:28;98467.41;;;17.00;100.00
12879;BME280;20617;49.476;10.986;2022-10-16T07:21:35;98479.78;;;16.97;100.00
12879;BME280;20617;49.476;10.986;2022-10-16T07:23:40;98492.84;;;16.99;100.00
12879;BME280;20617;49.476;10.986;2022-10-16T07:25:45;98493.38;;;17.04;100.00
12879;BME280;20617;49.476;10.986;2022-10-16T07:27:57;98493.84;;;17.11;100.00
12879;BME280;20617;49.476;10.986;2022-10-16T07:30:02;98486.47;;;17.16;100.00
12879;BME280;20617;49.476;10.986;2022-10-16T07:32:10;98501.78;;;17.24;100.00
12879;BME280;20617;49.476;10.986;2022-10-16T07:34:18;98502.97;;;17.32;100.00
12879;BME280;20617;49.476;10.986;2022-10-16T07:36:23;98503.50;;;17.37;100.00
12879;BME280;20617;49.476;10.986;2022-10-16T07:38:28;98494.84;;;17.35;100.00
12879;BME280;20617;49.476;10.986;2022-10-16T07:40:33;98492.34;;;17.34;100.00
12879;BME280;20617;49.476;10.986;2022-10-16T07:42:38;98494.97;;;17.34;100.00
12879;BME280;20617;49.476;10.986;2022-10-16T07:44:43;98482.75;;;17.33;100.00
12879;BME280;20617;49.476;10.986;2022-10-16T07:46:48;98482.66;;;17.34;100.00
12879;BME280;20617;49.476;10.986;2022-10-16T07:48:52;98479.19;;;17.34;100.00
12879;BME280;20617;49.476;10.986;2022-10-16T07:51:01;98482.44;;;17.37;100.00
12879;BME280;20617;49.476;10.986;2022-10-16T07:53:07;98490.22;;;17.39;100.00
12879;BME280;20617;49.476;10.986;2022-10-16T07:55:11;98487.50;;;17.40;100.00
12879;BME280;20617;49.476;10.986;2022-10-16T07:57:16;98487.38;;;17.42;100.00
12879;BME280;20617;49.476;10.986;2022-10-16T07:59:22;98488.97;;;17.45;100.00
12879;BME280;20617;49.476;10.986;2022-10-16T08:01:28;98494.16;;;17.46;100.00
12879;BME280;20617;49.476;10.986;2022-10-16T08:03:33;98497.22;;;17.53;100.00
12879;BME280;20617;49.476;10.986;2022-10-16T08:05:38;98496.25;;;17.54;100.00
12879;BME280;20617;49.476;10.986;2022-10-16T08:07:50;98503.78;;;17.60;100.00
12879;BME280;20617;49.476;10.986;2022-10-16T08:09:55;98504.63;;;17.60;100.00
12879;BME280;20617;49.476;10.986;2022-10-16T08:12:00;98507.03;;;17.63;100.00
12879;BME280;20617;49.476;10.986;2022-10-16T08:14:06;98510.22;;;17.69;100.00
12879;BME280;20617;49.476;10.986;2022-10-16T08:16:11;98508.22;;;17.72;100.00
12879;BME280;20617;49.476;10.986;2022-10-16T08:18:16;98504.41;;;17.76;100.00
12879;BME280;20617;49.476;10.986;2022-10-16T08:20:21;98504.41;;;17.76;100.00
12879;BME280;20617;49.476;10.986;2022-10-16T08:22:26;98496.47;;;17.78;100.00
12879;BME280;20617;49.476;10.986;2022-10-16T08:24:33;98491.81;;;17.81;100.00
12879;BME280;20617;49.476;10.986;2022-10-16T08:26:38;98492.44;;;17.85;100.00
12879;BME280;20617;49.476;10.986;2022-10-16T08:28:43;98492.34;;;17.86;100.00
12879;BME280;20617;49.476;10.986;2022-10-16T08:30:48;98488.34;;;17.94;100.00
12879;BME280;20617;49.476;10.986;2022-10-16T08:32:53;98482.78;;;17.98;100.00
12879;BME280;20617;49.476;10.986;2022-10-16T08:34:58;98495.59;;;18.03;100.00
12879;BME280;20617;49.476;10.986;2022-10-16T08:37:03;98494.25;;;18.10;100.00
12879;BME280;20617;49.476;10.986;2022-10-16T08:39:09;98496.47;;;18.16;100.00
12879;BME280;20617;49.476;10.986;2022-10-16T08:41:26;98495.41;;;18.19;100.00
12879;BME280;20617;49.476;10.986;2022-10-16T08:43:48;98497.28;;;18.29;100.00
12879;BME280;20617;49.476;10.986;2022-10-16T08:46:15;98495.78;;;18.38;100.00
12879;BME280;20617;49.476;10.986;2022-10-16T08:48:27;98495.16;;;18.47;100.00
12879;BME280;20617;49.476;10.986;2022-10-16T08:50:37;98499.66;;;18.58;100.00
12879;BME280;20617;49.476;10.986;2022-10-16T08:52:44;98489.63;;;18.63;100.00
12879;BME280;20617;49.476;10.986;2022-10-16T08:54:51;98495.53;;;18.67;100.00
12879;BME280;20617;49.476;10.986;2022-10-16T08:57:09;98489.31;;;18.68;100.00
12879;BME280;20617;49.476;10.986;2022-10-16T08:59:16;98481.50;;;18.66;100.00
12879;BME280;20617;49.476;10.986;2022-10-16T09:01:22;98486.56;;;18.69;100.00
12879;BME280;20617;49.476;10.986;2022-10-16T09:03:39;98482.81;;;18.73;100.00
12879;BME280;20617;49.476;10.986;2022-10-16T09:05:57;98482.34;;;18.80;100.00
12879;BME280;20617;49.476;10.986;2022-10-16T09:08:10;98491.09;;;18.80;100.00
12879;BME280;20617;49.476;10.986;2022-10-16T09:10:31;98487.19;;;18.86;100.00
12879;BME280;20617;49.476;10.986;2022-10-16T09:12:48;98491.28;;;18.90;100.00
12879;BME280;20617;49.476;10.986;2022-10-16T09:15:02;98487.34;;;18.95;100.00
12879;BME280;20617;49.476;10.986;2022-10-16T09:17:29;98493.88;;;19.03;100.00
12879;BME280;20617;49.476;10.986;2022-10-16T09:19:38;98487.41;;;19.07;100.00
12879;BME280;20617;49.476;10.986;2022-10-16T09:21:46;98485.50;;;19.09;100.00
12879;BME280;20617;49.476;10.986;2022-10-16T09:23:54;98494.03;;;19.12;100.00
12879;BME280;20617;49.476;10.986;2022-10-16T09:26:00;98497.41;;;19.14;100.00
12879;BME280;20617;49.476;10.986;2022-10-16T09:28:09;98499.38;;;19.23;100.00
12879;BME280;20617;49.476;10.986;2022-10-16T09:30:16;98500.44;;;19.21;100.00
12879;BME280;20617;49.476;10.986;2022-10-16T09:32:22;98502.00;;;19.23;100.00
12879;BME280;20617;49.476;10.986;2022-10-16T09:34:30;98507.66;;;19.30;100.00
12879;BME280;20617;49.476;10.986;2022-10-16T09:36:40;98505.03;;;19.30;100.00
12879;BME280;20617;49.476;10.986;2022-10-16T09:38:46;98517.63;;;19.27;100.00
12879;BME280;20617;49.476;10.986;2022-10-16T09:40:52;98515.59;;;19.30;100.00
12879;BME280;20617;49.476;10.986;2022-10-16T09:43:23;98519.06;;;19.31;100.00
12879;BME280;20617;49.476;10.986;2022-10-16T09:45:30;98520.03;;;19.30;100.00
12879;BME280;20617;49.476;10.986;2022-10-16T09:47:37;98525.09;;;19.33;100.00
12879;BME280;20617;49.476;10.986;2022-10-16T09:49:51;98519.81;;;19.33;100.00
12879;BME280;20617;49.476;10.986;2022-10-16T09:52:03;98511.88;;;19.33;100.00
12879;BME280;20617;49.476;10.986;2022-10-16T09:54:14;98509.47;;;19.30;100.00
12879;BME280;20617;49.476;10.986;2022-10-16T09:56:24;98513.78;;;19.31;100.00
12879;BME280;20617;49.476;10.986;2022-10-16T09:58:32;98520.66;;;19.33;100.00
12879;BME280;20617;49.476;10.986;2022-10-16T10:00:41;98517.03;;;19.34;100.00
12879;BME280;20617;49.476;10.986;2022-10-16T10:02:46;98524.84;;;19.36;100.00
12879;BME280;20617;49.476;10.986;2022-10-16T10:04:53;98526.31;;;19.40;100.00
12879;BME280;20617;49.476;10.986;2022-10-16T10:06:58;98526.06;;;19.43;100.00
12879;BME280;20617;49.476;10.986;2022-10-16T10:09:06;98522.78;;;19.52;100.00
12879;BME280;20617;49.476;10.986;2022-10-16T10:11:18;98515.34;;;19.57;100.00
12879;BME280;20617;49.476;10.986;2022-10-16T10:13:24;98512.06;;;19.66;100.00
12879;BME280;20617;49.476;10.986;2022-10-16T10:15:41;98502.38;;;19.78;100.00
12879;BME280;20617;49.476;10.986;2022-10-16T10:17:47;98508.84;;;19.85;100.00
12879;BME280;20617;49.476;10.986;2022-10-16T10:19:54;98511.03;;;19.92;100.00
12879;BME280;20617;49.476;10.986;2022-10-16T10:21:59;98502.63;;;19.98;100.00
12879;BME280;20617;49.476;10.986;2022-10-16T10:24:04;98503.94;;;20.03;100.00
12879;BME280;20617;49.476;10.986;2022-10-16T10:26:13;98507.69;;;20.12;100.00
12879;BME280;20617;49.476;10.986;2022-10-16T10:28:44;98503.38;;;20.22;100.00
12879;BME280;20617;49.476;10.986;2022-10-16T10:30:59;98506.72;;;20.24;100.00
12879;BME280;20617;49.476;10.986;2022-10-16T10:33:14;98509.28;;;20.26;100.00
12879;BME280;20617;49.476;10.986;2022-10-16T10:35:30;98503.00;;;20.27;100.00
12879;BME280;20617;49.476;10.986;2022-10-16T10:37:49;98507.47;;;20.38;100.00
12879;BME280;20617;49.476;10.986;2022-10-16T10:40:00;98510.47;;;20.44;100.00
12879;BME280;20617;49.476;10.986;2022-10-16T10:42:15;98512.16;;;20.45;100.00
12879;BME280;20617;49.476;10.986;2022-10-16T10:44:25;98504.22;;;20.45;100.00
12879;BME280;20617;49.476;10.986;2022-10-16T10:46:41;98502.81;;;20.52;100.00
12879;BME280;20617;49.476;10.986;2022-10-16T10:49:10;98500.41;;;20.61;100.00
12879;BME280;20617;49.476;10.986;2022-10-16T10:51:25;98506.88;;;20.68;100.00
12879;BME280;20617;49.476;10.986;2022-10-16T10:53:42;98502.78;;;20.75;100.00
12879;BME280;20617;49.476;10.986;2022-10-16T10:55:54;98501.56;;;20.79;100.00
12879;BME280;20617;49.476;10.986;2022-10-16T10:58:20;98501.94;;;20.86;100.00
12879;BME280;20617;49.476;10.986;2022-10-16T11:00:44;98501.69;;;20.89;100.00